sensor_id;sensor_type;location;lat;lon;timestamp;P1;durP1;ratioP1;P2;durP2;ratioP2
9775;SDS011;4927;52.472;13.108;2022-10-16T00:04:06;2.50;;;2.20;;
9775;SDS011;4927;52.472;13.108;2022-10-16T00:09:13;3.70;;;3.50;;
9775;SDS011;4927;52.472;13.108;2022-10-16T00:14:19;7.40;;;6.90;;
9775;SDS011;4927;52.472;13.108;2022-10-16T00:19:23;2.05;;;1.85;;
9775;SDS011;4927;52.472;13.108;2022-10-16T00:24:30;1.80;;;1.70;;
9775;SDS011;4927;52.472;13.108;2022-10-16T00:29:36;3.15;;;1.90;;
9775;SDS011;4927;52.472;13.108;2022-10-16T00:34:42;2.00;;;1.77;;
9775;SDS011;4927;52.472;13.108;2022-10-16T00:39:48;1.90;;;1.80;;
9775;SDS011;4927;52.472;13.108;2022-10-16T00:44:55;3.50;;;1.90;;
9775;SDS011;4927;52.472;13.108;2022-10-16T00:50:11;2.00;;;1.90;;
9775;SDS011;4927;52.472;13.108;2022-10-16T00:55:17;2.05;;;2.03;;
9775;SDS011;4927;52.472;13.108;2022-10-16T01:00:24;5.70;;;5.20;;
9775;SDS011;4927;52.472;13.108;2022-10-16T01:05:33;4.35;;;4.15;;
9775;SDS011;4927;52.472;13.108;2022-10-16T01:10:40;2.00;;;1.90;;
9775;SDS011;4927;52.472;13.108;2022-10-16T01:15:47;2.03;;;1.92;;
9775;SDS011;4927;52.472;13.108;2022-10-16T01:20:59;1.90;;;1.80;;
9775;SDS011;4927;52.472;13.108;2022-10-16T01:31:24;6.90;;;1.70;;
9775;SDS011;4927;52.472;13.108;2022-10-16T01:36:29;1.95;;;1.95;;
9775;SDS011;4927;52.472;13.108;2022-10-16T01:41:36;2.60;;;1.90;;
9775;SDS011;4927;52.472;13.108;2022-10-16T01:46:44;2.15;;;2.05;;
9775;SDS011;4927;52.472;13.108;2022-10-16T01:51:48;2.00;;;1.90;;
9775;SDS011;4927;52.472;13.108;2022-10-16T01:56:53;3.20;;;1.77;;
9775;SDS011;4927;52.472;13.108;2022-10-16T02:02:01;1.87;;;1.77;;
9775;SDS011;4927;52.472;13.108;2022-10-16T02:07:11;1.80;;;1.80;;
9775;SDS011;4927;52.472;13.108;2022-10-16T02:12:24;1.80;;;1.70;;
9775;SDS011;4927;52.472;13.108;2022-10-16T02:17:28;1.48;;;1.48;;
9775;SDS011;4927;52.472;13.108;2022-10-16T02:22:43;2.00;;;1.80;;
9775;SDS011;4927;52.472;13.108;2022-10-16T02:27:53;1.70;;;1.40;;
9775;SDS011;4927;52.472;13.108;2022-10-16T02:33:06;1.40;;;1.30;;
9775;SDS011;4927;52.472;13.108;2022-10-16T02:38:11;1.60;;;1.50;;
9775;SDS011;4927;52.472;13.108;2022-10-16T02:43:17;2.17;;;1.73;;
9775;SDS011;4927;52.472;13.108;2022-10-16T02:48:24;1.40;;;1.40;;
9775;SDS011;4927;52.472;13.108;2022-10-16T02:53:34;1.75;;;1.50;;
9775;SDS011;4927;52.472;13.108;2022-10-16T02:58:41;1.50;;;1.50;;
9775;SDS011;4927;52.472;13.108;2022-10-16T03:03:47;1.50;;;1.50;;
9775;SDS011;4927;52.472;13.108;2022-10-16T03:08:57;1.50;;;1.40;;
9775;SDS011;4927;52.472;13.108;2022-10-16T03:14:04;1.50;;;1.40;;
9775;SDS011;4927;52.472;13.108;2022-10-16T03:19:10;1.58;;;1.48;;
9775;SDS011;4927;52.472;13.108;2022-10-16T03:24:16;1.50;;;1.50;;
9775;SDS011;4927;52.472;13.108;2022-10-16T03:29:23;1.50;;;1.50;;
9775;SDS011;4927;52.472;13.108;2022-10-16T03:34:29;1.48;;;1.48;;
9775;SDS011;4927;52.472;13.108;2022-10-16T03:39:36;1.50;;;1.40;;
9775;SDS011;4927;52.472;13.108;2022-10-16T03:44:46;1.83;;;1.73;;
9775;SDS011;4927;52.472;13.108;2022-10-16T03:49:52;1.80;;;1.70;;
9775;SDS011;4927;52.472;13.108;2022-10-16T03:54:58;3.20;;;1.52;;
9775;SDS011;4927;52.472;13.108;2022-10-16T04:00:05;1.90;;;1.80;;
9775;SDS011;4927;52.472;13.108;2022-10-16T04:05:10;1.35;;;1.35;;
9775;SDS011;4927;52.472;13.108;2022-10-16T04:10:16;1.42;;;1.42;;
9775;SDS011;4927;52.472;13.108;2022-10-16T04:15:23;1.48;;;1.48;;
9775;SDS011;4927;52.472;13.108;2022-10-16T04:20:29;1.60;;;1.60;;
9775;SDS011;4927;52.472;13.108;2022-10-16T04:25:35;2.10;;;2.00;;
9775;SDS011;4927;52.472;13.108;2022-10-16T04:30:41;1.60;;;1.50;;
9775;SDS011;4927;52.472;13.108;2022-10-16T04:35:48;1.65;;;1.55;;
9775;SDS011;4927;52.472;13.108;2022-10-16T04:40:54;1.70;;;1.60;;
9775;SDS011;4927;52.472;13.108;2022-10-16T04:46:00;1.67;;;1.67;;
9775;SDS011;4927;52.472;13.108;2022-10-16T04:51:07;1.80;;;1.50;;
9775;SDS011;4927;52.472;13.108;2022-10-16T04:56:17;2.10;;;1.67;;
9775;SDS011;4927;52.472;13.108;2022-10-16T05:01:24;1.45;;;1.45;;
9775;SDS011;4927;52.472;13.108;2022-10-16T05:06:34;1.50;;;1.50;;
9775;SDS011;4927;52.472;13.108;2022-10-16T05:11:40;2.20;;;1.70;;
9775;SDS011;4927;52.472;13.108;2022-10-16T05:16:46;1.90;;;1.90;;
9775;SDS011;4927;52.472;13.108;2022-10-16T05:21:53;1.90;;;1.90;;
9775;SDS011;4927;52.472;13.108;2022-10-16T05:26:59;2.00;;;1.90;;
9775;SDS011;4927;52.472;13.108;2022-10-16T05:32:09;4.40;;;2.00;;
9775;SDS011;4927;52.472;13.108;2022-10-16T05:37:49;2.50;;;2.40;;
9775;SDS011;4927;52.472;13.108;2022-10-16T05:42:55;3.08;;;1.80;;
9775;SDS011;4927;52.472;13.108;2022-10-16T05:48:06;2.30;;;2.20;;
9775;SDS011;4927;52.472;13.108;2022-10-16T05:53:12;1.95;;;1.95;;
9775;SDS011;4927;52.472;13.108;2022-10-16T05:58:18;2.00;;;1.83;;
9775;SDS011;4927;52.472;13.108;2022-10-16T06:03:24;1.60;;;1.60;;
9775;SDS011;4927;52.472;13.108;2022-10-16T06:08:29;2.00;;;1.80;;
9775;SDS011;4927;52.472;13.108;2022-10-16T06:13:35;2.10;;;1.80;;
9775;SDS011;4927;52.472;13.108;2022-10-16T06:18:41;1.90;;;1.60;;
9775;SDS011;4927;52.472;13.108;2022-10-16T06:23:48;1.70;;;1.70;;
9775;SDS011;4927;52.472;13.108;2022-10-16T06:28:58;1.98;;;1.98;;
9775;SDS011;4927;52.472;13.108;2022-10-16T06:34:05;2.20;;;2.10;;
9775;SDS011;4927;52.472;13.108;2022-10-16T06:39:11;2.10;;;2.00;;
9775;SDS011;4927;52.472;13.108;2022-10-16T06:44:17;3.47;;;1.90;;
9775;SDS011;4927;52.472;13.108;2022-10-16T06:49:23;3.08;;;2.40;;
9775;SDS011;4927;52.472;13.108;2022-10-16T06:54:30;2.90;;;2.03;;
9775;SDS011;4927;52.472;13.108;2022-10-16T06:59:36;3.00;;;2.08;;
9775;SDS011;4927;52.472;13.108;2022-10-16T07:04:43;1.70;;;1.70;;
9775;SDS011;4927;52.472;13.108;2022-10-16T07:09:49;2.00;;;1.70;;
9775;SDS011;4927;52.472;13.108;2022-10-16T07:14:55;6.25;;;2.17;;
9775;SDS011;4927;52.472;13.108;2022-10-16T07:20:02;1.77;;;1.70;;
9775;SDS011;4927;52.472;13.108;2022-10-16T07:25:06;1.90;;;1.80;;
9775;SDS011;4927;52.472;13.108;2022-10-16T07:30:14;2.60;;;1.80;;
9775;SDS011;4927;52.472;13.108;2022-10-16T07:35:20;2.60;;;1.60;;
9775;SDS011;4927;52.472;13.108;2022-10-16T07:40:27;12.23;;;2.00;;
9775;SDS011;4927;52.472;13.108;2022-10-16T07:45:33;5.65;;;1.70;;
9775;SDS011;4927;52.472;13.108;2022-10-16T07:50:37;3.10;;;3.00;;
9775;SDS011;4927;52.472;13.108;2022-10-16T07:55:43;3.00;;;1.70;;
9775;SDS011;4927;52.472;13.108;2022-10-16T08:00:50;3.95;;;1.58;;
9775;SDS011;4927;52.472;13.108;2022-10-16T08:05:54;1.90;;;1.80;;
9775;SDS011;4927;52.472;13.108;2022-10-16T08:11:00;1.90;;;1.60;;
9775;SDS011;4927;52.472;13.108;2022-10-16T08:16:06;1.75;;;1.75;;
9775;SDS011;4927;52.472;13.108;2022-10-16T08:21:15;1.65;;;1.50;;
9775;SDS011;4927;52.472;13.108;2022-10-16T08:26:18;3.33;;;1.80;;
9775;SDS011;4927;52.472;13.108;2022-10-16T08:31:24;8.00;;;1.60;;
9775;SDS011;4927;52.472;13.108;2022-10-16T08:36:30;1.65;;;1.55;;
9775;SDS011;4927;52.472;13.108;2022-10-16T08:41:49;4.20;;;1.40;;
9775;SDS011;4927;52.472;13.108;2022-10-16T08:47:09;8.45;;;1.70;;
9775;SDS011;4927;52.472;13.108;2022-10-16T08:52:13;1.50;;;1.40;;
9775;SDS011;4927;52.472;13.108;2022-10-16T08:57:21;3.30;;;1.80;;
9775;SDS011;4927;52.472;13.108;2022-10-16T09:02:31;1.90;;;1.60;;
9775;SDS011;4927;52.472;13.108;2022-10-16T09:07:43;1.55;;;1.35;;
9775;SDS011;4927;52.472;13.108;2022-10-16T09:13:03;1.75;;;1.25;;
9775;SDS011;4927;52.472;13.108;2022-10-16T09:18:21;2.00;;;1.20;;
9775;SDS011;4927;52.472;13.108;2022-10-16T09:23:32;4.90;;;2.05;;
9775;SDS011;4927;52.472;13.108;2022-10-16T09:28:37;2.20;;;1.20;;
9775;SDS011;4927;52.472;13.108;2022-10-16T09:33:43;1.80;;;1.30;;
9775;SDS011;4927;52.472;13.108;2022-10-16T09:38:49;1.33;;;1.33;;
9775;SDS011;4927;52.472;13.108;2022-10-16T09:43:56;2.20;;;1.40;;
9775;SDS011;4927;52.472;13.108;2022-10-16T09:49:03;4.10;;;1.20;;
9775;SDS011;4927;52.472;13.108;2022-10-16T09:54:13;1.58;;;1.48;;
9775;SDS011;4927;52.472;13.108;2022-10-16T09:59:19;1.70;;;1.60;;
9775;SDS011;4927;52.472;13.108;2022-10-16T10:04:25;1.98;;;1.40;;
9775;SDS011;4927;52.472;13.108;2022-10-16T10:09:36;1.70;;;1.25;;
9775;SDS011;4927;52.472;13.108;2022-10-16T10:14:40;1.70;;;1.20;;
9775;SDS011;4927;52.472;13.108;2022-10-16T10:19:46;3.70;;;1.42;;
9775;SDS011;4927;52.472;13.108;2022-10-16T10:24:54;2.10;;;1.30;;
9775;SDS011;4927;52.472;13.108;2022-10-16T10:30:06;1.30;;;1.30;;
9775;SDS011;4927;52.472;13.108;2022-10-16T10:35:12;5.30;;;1.17;;
9775;SDS011;4927;52.472;13.108;2022-10-16T10:40:24;2.60;;;1.00;;
9775;SDS011;4927;52.472;13.108;2022-10-16T10:45:39;1.55;;;1.45;;
9775;SDS011;4927;52.472;13.108;2022-10-16T10:50:49;2.60;;;1.50;;
9775;SDS011;4927;52.472;13.108;2022-10-16T10:56:00;2.90;;;1.02;;
9775;SDS011;4927;52.472;13.108;2022-10-16T11:01:16;1.70;;;1.20;;
9775;SDS011;4927;52.472;13.108;2022-10-16T11:06:28;5.60;;;1.50;;
9775;SDS011;4927;52.472;13.108;2022-10-16T11:11:59;2.30;;;1.40;;
9775;SDS011;4927;52.472;13.108;2022-10-16T11:20:34;0.90;;;0.90;;
9775;SDS011;4927;52.472;13.108;2022-10-16T11:25:40;4.20;;;1.58;;
9775;SDS011;4927;52.472;13.108;2022-10-16T11:36:12;1.10;;;1.10;;
9775;SDS011;4927;52.472;13.108;2022-10-16T11:41:32;1.50;;;1.10;;
9775;SDS011;4927;52.472;13.108;2022-10-16T11:52:12;2.80;;;1.00;;
9775;SDS011;4927;52.472;13.108;2022-10-16T11:57:23;2.33;;;1.10;;
9775;SDS011;4927;52.472;13.108;2022-10-16T12:02:34;1.00;;;1.00;;
9775;SDS011;4927;52.472;13.108;2022-10-16T12:18:31;0.70;;;0.70;;
9775;SDS011;4927;52.472;13.108;2022-10-16T12:23:38;3.70;;;0.90;;
9775;SDS011;4927;52.472;13.108;2022-10-16T12:28:42;0.95;;;0.93;;
9775;SDS011;4927;52.472;13.108;2022-10-16T12:33:56;2.53;;;2.42;;
9775;SDS011;4927;52.472;13.108;2022-10-16T12:38:59;1.67;;;0.90;;
9775;SDS011;4927;52.472;13.108;2022-10-16T12:44:21;3.30;;;0.90;;
9775;SDS011;4927;52.472;13.108;2022-10-16T12:49:20;3.95;;;1.00;;
9775;SDS011;4927;52.472;13.108;2022-10-16T12:54:31;2.10;;;0.70;;
9775;SDS011;4927;52.472;13.108;2022-10-16T13:15:45;2.20;;;1.00;;
9775;SDS011;4927;52.472;13.108;2022-10-16T13:26:10;2.40;;;1.42;;
9775;SDS011;4927;52.472;13.108;2022-10-16T13:31:17;0.88;;;0.80;;
9775;SDS011;4927;52.472;13.108;2022-10-16T13:36:22;5.00;;;0.90;;
9775;SDS011;4927;52.472;13.108;2022-10-16T13:41:27;1.80;;;1.00;;
9775;SDS011;4927;52.472;13.108;2022-10-16T13:46:33;0.90;;;0.90;;
9775;SDS011;4927;52.472;13.108;2022-10-16T13:51:40;2.33;;;1.00;;
9775;SDS011;4927;52.472;13.108;2022-10-16T13:56:46;1.20;;;0.70;;
9775;SDS011;4927;52.472;13.108;2022-10-16T14:01:53;1.00;;;0.80;;
9775;SDS011;4927;52.472;13.108;2022-10-16T14:06:59;2.80;;;1.30;;
9775;SDS011;4927;52.472;13.108;2022-10-16T14:12:08;1.35;;;0.85;;
9775;SDS011;4927;52.472;13.108;2022-10-16T14:17:16;1.33;;;0.90;;
9775;SDS011;4927;52.472;13.108;2022-10-16T14:22:33;0.80;;;0.80;;
9775;SDS011;4927;52.472;13.108;2022-10-16T14:27:40;1.23;;;1.10;;
9775;SDS011;4927;52.472;13.108;2022-10-16T14:32:53;4.80;;;1.30;;
9775;SDS011;4927;52.472;13.108;2022-10-16T14:37:58;1.70;;;1.50;;
9775;SDS011;4927;52.472;13.108;2022-10-16T14:43:04;0.90;;;0.90;;
9775;SDS011;4927;52.472;13.108;2022-10-16T14:48:14;2.00;;;1.00;;
9775;SDS011;4927;52.472;13.108;2022-10-16T14:53:19;2.75;;;1.30;;
9775;SDS011;4927;52.472;13.108;2022-10-16T14:58:26;1.80;;;1.15;;
9775;SDS011;4927;52.472;13.108;2022-10-16T15:03:32;1.02;;;0.88;;
9775;SDS011;4927;52.472;13.108;2022-10-16T15:08:38;1.10;;;1.00;;
9775;SDS011;4927;52.472;13.108;2022-10-16T15:13:45;0.70;;;0.70;;
9775;SDS011;4927;52.472;13.108;2022-10-16T15:18:51;0.95;;;0.90;;
9775;SDS011;4927;52.472;13.108;2022-10-16T15:23:57;1.00;;;1.00;;
9775;SDS011;4927;52.472;13.108;2022-10-16T15:29:03;1.90;;;1.80;;
9775;SDS011;4927;52.472;13.108;2022-10-16T15:34:10;1.85;;;1.75;;
9775;SDS011;4927;52.472;13.108;2022-10-16T15:39:17;1.25;;;1.25;;
9775;SDS011;4927;52.472;13.108;2022-10-16T15:44:22;5.43;;;2.80;;
9775;SDS011;4927;52.472;13.108;2022-10-16T15:49:28;4.68;;;4.47;;
9775;SDS011;4927;52.472;13.108;2022-10-16T15:54:35;4.60;;;4.50;;
9775;SDS011;4927;52.472;13.108;2022-10-16T15:59:41;5.53;;;5.03;;
9775;SDS011;4927;52.472;13.108;2022-10-16T16:04:48;5.07;;;4.78;;
9775;SDS011;4927;52.472;13.108;2022-10-16T16:09:54;7.05;;;6.65;;
9775;SDS011;4927;52.472;13.108;2022-10-16T16:15:00;1.80;;;1.70;;
9775;SDS011;4927;52.472;13.108;2022-10-16T16:20:07;2.15;;;2.05;;
9775;SDS011;4927;52.472;13.108;2022-10-16T16:25:15;2.50;;;2.30;;
9775;SDS011;4927;52.472;13.108;2022-10-16T16:30:21;2.35;;;2.15;;
9775;SDS011;4927;52.472;13.108;2022-10-16T16:35:27;2.50;;;2.30;;
9775;SDS011;4927;52.472;13.108;2022-10-16T16:40:33;2.30;;;2.10;;
9775;SDS011;4927;52.472;13.108;2022-10-16T16:45:40;2.37;;;2.22;;
9775;SDS011;4927;52.472;13.108;2022-10-16T16:50:45;2.20;;;2.10;;
9775;SDS011;4927;52.472;13.108;2022-10-16T16:55:51;2.20;;;2.10;;
9775;SDS011;4927;52.472;13.108;2022-10-16T17:00:57;2.00;;;1.90;;
9775;SDS011;4927;52.472;13.108;2022-10-16T17:06:05;2.40;;;2.08;;
9775;SDS011;4927;52.472;13.108;2022-10-16T17:11:12;2.17;;;2.08;;
9775;SDS011;4927;52.472;13.108;2022-10-16T17:16:15;2.17;;;2.08;;
9775;SDS011;4927;52.472;13.108;2022-10-16T17:21:20;2.45;;;2.30;;
9775;SDS011;4927;52.472;13.108;2022-10-16T17:26:24;2.95;;;2.85;;
9775;SDS011;4927;52.472;13.108;2022-10-16T17:31:31;4.37;;;4.18;;
9775;SDS011;4927;52.472;13.108;2022-10-16T17:36:37;4.47;;;4.28;;
9775;SDS011;4927;52.472;13.108;2022-10-16T17:41:41;3.70;;;3.60;;
9775;SDS011;4927;52.472;13.108;2022-10-16T17:46:49;4.50;;;3.00;;
9775;SDS011;4927;52.472;13.108;2022-10-16T17:51:53;5.00;;;3.85;;
9775;SDS011;4927;52.472;13.108;2022-10-16T17:57:00;8.32;;;7.50;;
9775;SDS011;4927;52.472;13.108;2022-10-16T18:02:07;9.02;;;8.20;;
9775;SDS011;4927;52.472;13.108;2022-10-16T18:07:11;13.27;;;9.52;;
9775;SDS011;4927;52.472;13.108;2022-10-16T18:12:17;9.88;;;9.07;;
9775;SDS011;4927;52.472;13.108;2022-10-16T18:17:23;10.63;;;9.70;;
9775;SDS011;4927;52.472;13.108;2022-10-16T18:22:31;10.50;;;8.82;;
9775;SDS011;4927;52.472;13.108;2022-10-16T18:27:36;10.55;;;8.68;;
9775;SDS011;4927;52.472;13.108;2022-10-16T18:32:41;31.05;;;24.70;;
9775;SDS011;4927;52.472;13.108;2022-10-16T18:37:48;10.73;;;9.82;;
9775;SDS011;4927;52.472;13.108;2022-10-16T18:42:54;9.63;;;8.73;;
9775;SDS011;4927;52.472;13.108;2022-10-16T18:48:01;8.70;;;8.10;;
9775;SDS011;4927;52.472;13.108;2022-10-16T18:53:07;9.40;;;8.70;;
9775;SDS011;4927;52.472;13.108;2022-10-16T18:58:14;9.10;;;8.40;;
9775;SDS011;4927;52.472;13.108;2022-10-16T19:03:20;8.00;;;7.50;;
9775;SDS011;4927;52.472;13.108;2022-10-16T19:08:26;8.60;;;8.00;;
9775;SDS011;4927;52.472;13.108;2022-10-16T19:13:33;9.18;;;8.30;;
9775;SDS011;4927;52.472;13.108;2022-10-16T19:18:39;8.93;;;8.02;;
9775;SDS011;4927;52.472;13.108;2022-10-16T19:23:49;9.40;;;8.40;;
9775;SDS011;4927;52.472;13.108;2022-10-16T19:28:53;11.57;;;9.10;;
9775;SDS011;4927;52.472;13.108;2022-10-16T19:34:04;8.98;;;8.27;;
9775;SDS011;4927;52.472;13.108;2022-10-16T19:39:11;9.95;;;8.95;;
9775;SDS011;4927;52.472;13.108;2022-10-16T19:44:17;10.20;;;9.20;;
9775;SDS011;4927;52.472;13.108;2022-10-16T19:49:23;11.25;;;9.90;;
9775;SDS011;4927;52.472;13.108;2022-10-16T19:54:29;14.30;;;9.88;;
9775;SDS011;4927;52.472;13.108;2022-10-16T19:59:36;9.95;;;9.13;;
9775;SDS011;4927;52.472;13.108;2022-10-16T20:04:42;9.82;;;8.82;;
9775;SDS011;4927;52.472;13.108;2022-10-16T20:09:48;9.70;;;8.70;;
9775;SDS011;4927;52.472;13.108;2022-10-16T20:14:55;9.30;;;8.40;;
9775;SDS011;4927;52.472;13.108;2022-10-16T20:20:01;9.25;;;7.97;;
9775;SDS011;4927;52.472;13.108;2022-10-16T20:25:07;9.10;;;8.20;;
9775;SDS011;4927;52.472;13.108;2022-10-16T20:30:14;10.40;;;9.40;;
9775;SDS011;4927;52.472;13.108;2022-10-16T20:35:20;9.55;;;8.73;;
9775;SDS011;4927;52.472;13.108;2022-10-16T20:40:27;10.35;;;9.35;;
9775;SDS011;4927;52.472;13.108;2022-10-16T20:45:33;9.60;;;8.80;;
9775;SDS011;4927;52.472;13.108;2022-10-16T20:50:40;9.82;;;8.93;;
9775;SDS011;4927;52.472;13.108;2022-10-16T20:55:46;10.70;;;9.77;;
9775;SDS011;4927;52.472;13.108;2022-10-16T21:00:53;22.13;;;16.73;;
9775;SDS011;4927;52.472;13.108;2022-10-16T21:06:00;12.35;;;11.15;;
9775;SDS011;4927;52.472;13.108;2022-10-16T21:11:10;9.30;;;8.70;;
9775;SDS011;4927;52.472;13.108;2022-10-16T21:16:20;11.52;;;9.63;;
9775;SDS011;4927;52.472;13.108;2022-10-16T21:21:28;10.38;;;9.50;;
9775;SDS011;4927;52.472;13.108;2022-10-16T21:26:35;9.57;;;8.68;;
9775;SDS011;4927;52.472;13.108;2022-10-16T21:31:41;9.75;;;8.90;;
9775;SDS011;4927;52.472;13.108;2022-10-16T21:36:45;10.32;;;9.43;;
9775;SDS011;4927;52.472;13.108;2022-10-16T21:41:51;9.48;;;8.68;;
9775;SDS011;4927;52.472;13.108;2022-10-16T21:46:58;9.60;;;8.90;;
9775;SDS011;4927;52.472;13.108;2022-10-16T21:52:05;9.52;;;8.73;;
9775;SDS011;4927;52.472;13.108;2022-10-16T21:57:11;9.00;;;8.40;;
9775;SDS011;4927;52.472;13.108;2022-10-16T22:02:17;9.40;;;8.32;;
9775;SDS011;4927;52.472;13.108;2022-10-16T22:07:23;8.73;;;8.13;;
9775;SDS011;4927;52.472;13.108;2022-10-16T22:12:30;8.85;;;8.15;;
9775;SDS011;4927;52.472;13.108;2022-10-16T22:17:36;12.50;;;8.05;;
9775;SDS011;4927;52.472;13.108;2022-10-16T22:23:04;8.47;;;7.90;;
9775;SDS011;4927;52.472;13.108;2022-10-16T22:28:10;8.00;;;7.30;;
9775;SDS011;4927;52.472;13.108;2022-10-16T22:33:17;7.97;;;7.57;;
9775;SDS011;4927;52.472;13.108;2022-10-16T22:38:23;8.00;;;7.50;;
9775;SDS011;4927;52.472;13.108;2022-10-16T22:43:29;8.35;;;7.65;;
9775;SDS011;4927;52.472;13.108;2022-10-16T22:48:35;7.90;;;7.20;;
9775;SDS011;4927;52.472;13.108;2022-10-16T22:53:43;8.65;;;7.95;;
9775;SDS011;4927;52.472;13.108;2022-10-16T22:58:49;8.30;;;7.62;;
9775;SDS011;4927;52.472;13.108;2022-10-16T23:03:56;9.23;;;8.52;;
9775;SDS011;4927;52.472;13.108;2022-10-16T23:09:02;8.30;;;7.75;;
9775;SDS011;4927;52.472;13.108;2022-10-16T23:14:08;9.40;;;8.50;;
9775;SDS011;4927;52.472;13.108;2022-10-16T23:19:13;9.05;;;8.15;;
9775;SDS011;4927;52.472;13.108;2022-10-16T23:24:19;8.98;;;7.47;;
9775;SDS011;4927;52.472;13.108;2022-10-16T23:29:25;8.00;;;7.40;;
9775;SDS011;4927;52.472;13.108;2022-10-16T23:34:31;7.90;;;7.28;;
9775;SDS011;4927;52.472;13.108;2022-10-16T23:39:38;7.93;;;7.30;;
9775;SDS011;4927;52.472;13.108;2022-10-16T23:44:44;7.70;;;7.10;;
9775;SDS011;4927;52.472;13.108;2022-10-16T23:49:48;7.87;;;7.28;;
9775;SDS011;4927;52.472;13.108;2022-10-16T23:54:54;7.90;;;7.30;;
9775;SDS011;4927;52.472;13.108;2022-10-16T23:59:58;7.60;;;7.10;;
